createdAt,value
2017-12-23T00:00:23.853Z,0
2017-12-23T00:01:25.736Z,0
2017-12-23T00:02:27.600Z,0
2017-12-23T00:03:29.483Z,0
2017-12-23T00:04:31.313Z,0
2017-12-23T00:05:33.116Z,0
2017-12-23T00:06:34.979Z,0
2017-12-23T00:07:36.864Z,0
2017-12-23T00:08:38.761Z,0
2017-12-23T00:09:52.894Z,0
2017-12-23T00:10:54.781Z,0
2017-12-23T00:11:56.678Z,0
2017-12-23T00:12:58.541Z,0
2017-12-23T00:14:00.350Z,0
2017-12-23T00:15:02.159Z,0
2017-12-23T00:16:04.043Z,0
2017-12-23T00:17:05.879Z,0
2017-12-23T00:18:07.774Z,0
2017-12-23T00:19:21.901Z,0
2017-12-23T00:20:23.766Z,0
2017-12-23T00:21:25.655Z,0
2017-12-23T00:22:27.544Z,0
2017-12-23T00:23:29.359Z,0
2017-12-23T00:24:31.174Z,0
2017-12-23T00:25:33.043Z,0
2017-12-23T00:26:34.929Z,0
2017-12-23T00:27:36.820Z,0
2017-12-23T00:28:50.963Z,0
2017-12-23T00:29:52.814Z,0
2017-12-23T00:30:54.678Z,0
2017-12-23T00:31:56.533Z,0
2017-12-23T00:32:58.336Z,0
2017-12-23T00:34:00.133Z,0
2017-12-23T00:35:01.931Z,0
2017-12-23T00:36:03.727Z,0
2017-12-23T00:37:05.526Z,0
2017-12-23T00:38:19.712Z,0
2017-12-23T00:39:21.597Z,0
2017-12-23T00:40:23.482Z,0
2017-12-23T00:41:25.360Z,0
2017-12-23T00:42:27.165Z,0
2017-12-23T00:43:28.958Z,0
2017-12-23T00:44:30.819Z,0
2017-12-23T00:45:32.684Z,0
2017-12-23T00:46:34.568Z,0
2017-12-23T00:47:48.699Z,0
2017-12-23T00:48:50.560Z,0
2017-12-23T00:49:52.428Z,0
2017-12-23T00:50:54.309Z,0
2017-12-23T00:51:56.111Z,0
2017-12-23T00:52:57.930Z,0
2017-12-23T00:53:59.787Z,0
2017-12-23T00:55:01.659Z,0
2017-12-23T00:56:03.546Z,0
2017-12-23T00:57:17.731Z,0
2017-12-23T00:58:19.611Z,0
2017-12-23T00:59:21.473Z,0
2017-12-23T01:00:23.339Z,0
2017-12-23T01:01:25.162Z,0
2017-12-23T01:02:26.984Z,0
2017-12-23T01:03:28.843Z,0
2017-12-23T01:04:30.713Z,0
2017-12-23T01:05:32.596Z,0
2017-12-23T01:06:46.779Z,0
2017-12-23T01:07:48.637Z,0
2017-12-23T01:08:50.498Z,0
2017-12-23T01:09:52.356Z,0
2017-12-23T01:10:54.155Z,0
2017-12-23T01:11:55.960Z,0
2017-12-23T01:12:57.844Z,0
2017-12-23T01:13:59.728Z,0
2017-12-23T01:15:01.597Z,0
2017-12-23T01:16:15.777Z,0
2017-12-23T01:17:17.638Z,0
2017-12-23T01:18:19.522Z,0
2017-12-23T01:19:21.391Z,0
2017-12-23T01:20:23.210Z,0
2017-12-23T01:21:25.005Z,0
2017-12-23T01:22:26.876Z,0
2017-12-23T01:23:28.765Z,0
2017-12-23T01:24:30.650Z,0
2017-12-23T01:25:44.789Z,0
2017-12-23T01:26:46.646Z,0
2017-12-23T01:27:48.514Z,0
2017-12-23T01:28:50.394Z,0
2017-12-23T01:29:52.194Z,0
2017-12-23T01:30:53.999Z,0
2017-12-23T01:31:55.882Z,0
2017-12-23T01:32:57.750Z,0
2017-12-23T01:33:59.636Z,0
2017-12-23T01:35:13.839Z,0
2017-12-23T01:36:15.701Z,0
2017-12-23T01:37:17.588Z,0
2017-12-23T01:38:19.472Z,0
2017-12-23T01:39:21.275Z,0
2017-12-23T01:40:23.129Z,0
2017-12-23T01:41:24.944Z,0
2017-12-23T01:42:26.806Z,0
2017-12-23T01:43:28.669Z,0
2017-12-23T01:44:42.849Z,0
2017-12-23T01:45:44.737Z,0
2017-12-23T01:46:46.607Z,0
2017-12-23T01:47:48.489Z,0
2017-12-23T01:48:50.288Z,0
2017-12-23T01:49:52.082Z,0
2017-12-23T01:50:53.946Z,0
2017-12-23T01:51:55.825Z,0
2017-12-23T01:52:57.705Z,0
2017-12-23T01:54:11.865Z,0
2017-12-23T01:55:13.752Z,0
2017-12-23T01:56:15.632Z,0
2017-12-23T01:57:17.496Z,0
2017-12-23T01:58:19.319Z,0
2017-12-23T01:59:21.150Z,0
2017-12-23T02:00:23.015Z,0
2017-12-23T02:01:24.882Z,0
2017-12-23T02:02:26.766Z,0
2017-12-23T02:03:40.901Z,0
2017-12-23T02:04:42.806Z,0
2017-12-23T02:05:44.717Z,0
2017-12-23T02:06:46.634Z,0
2017-12-23T02:07:48.453Z,0
2017-12-23T02:08:50.252Z,0
2017-12-23T02:09:52.114Z,0
2017-12-23T02:10:53.974Z,0
2017-12-23T02:11:55.846Z,0
2017-12-23T02:13:10.001Z,0
2017-12-23T02:14:11.859Z,0
2017-12-23T02:15:13.726Z,0
2017-12-23T02:16:15.618Z,0
2017-12-23T02:17:17.414Z,0
2017-12-23T02:18:19.237Z,0
2017-12-23T02:19:21.092Z,0
2017-12-23T02:20:22.961Z,0
2017-12-23T02:21:24.841Z,0
2017-12-23T02:22:38.986Z,0
2017-12-23T02:23:40.855Z,0
2017-12-23T02:24:42.737Z,0
2017-12-23T02:25:44.624Z,0
2017-12-23T02:26:46.443Z,0
2017-12-23T02:27:48.259Z,0
2017-12-23T02:28:50.127Z,0
2017-12-23T02:29:52.010Z,0
2017-12-23T02:30:53.897Z,0
2017-12-23T02:32:08.051Z,0
2017-12-23T02:33:09.933Z,0
2017-12-23T02:34:11.798Z,0
2017-12-23T02:35:13.679Z,0
2017-12-23T02:36:15.476Z,0
2017-12-23T02:37:17.271Z,0
2017-12-23T02:38:19.129Z,0
2017-12-23T02:39:20.992Z,0
2017-12-23T02:40:22.852Z,0
2017-12-23T02:41:36.973Z,0
2017-12-23T02:42:38.842Z,0
2017-12-23T02:43:40.725Z,0
2017-12-23T02:44:42.602Z,0
2017-12-23T02:45:44.397Z,0
2017-12-23T02:46:46.207Z,0
2017-12-23T02:47:48.075Z,0
2017-12-23T02:48:49.953Z,0
2017-12-23T02:49:51.813Z,0
2017-12-23T02:51:05.940Z,0
2017-12-23T02:52:07.820Z,0
2017-12-23T02:53:09.680Z,0
2017-12-23T02:54:11.545Z,0
2017-12-23T02:55:13.368Z,0
2017-12-23T02:56:15.161Z,0
2017-12-23T02:57:17.024Z,0
2017-12-23T02:58:18.901Z,0
2017-12-23T02:59:20.760Z,0
2017-12-23T03:00:34.889Z,0
2017-12-23T03:01:36.778Z,0
2017-12-23T03:02:38.641Z,0
2017-12-23T03:03:40.509Z,0
2017-12-23T03:04:42.324Z,0
2017-12-23T03:05:44.120Z,0
2017-12-23T03:06:45.977Z,0
2017-12-23T03:07:47.840Z,0
2017-12-23T03:08:49.702Z,0
2017-12-23T03:10:03.856Z,0
2017-12-23T03:11:05.736Z,0
2017-12-23T03:12:07.619Z,0
2017-12-23T03:13:09.503Z,0
2017-12-23T03:14:11.296Z,0
2017-12-23T03:15:13.093Z,0
2017-12-23T03:16:14.958Z,0
2017-12-23T03:17:16.842Z,0
2017-12-23T03:18:18.722Z,0
2017-12-23T03:19:32.857Z,0
2017-12-23T03:20:34.752Z,0
2017-12-23T03:21:36.623Z,0
2017-12-23T03:22:38.505Z,0
2017-12-23T03:23:40.320Z,0
2017-12-23T03:24:42.132Z,0
2017-12-23T03:25:43.996Z,0
2017-12-23T03:26:45.875Z,0
2017-12-23T03:27:47.737Z,0
2017-12-23T03:29:01.889Z,0
2017-12-23T03:30:03.765Z,0
2017-12-23T03:31:05.707Z,0
2017-12-23T03:32:07.695Z,0
2017-12-23T03:33:09.682Z,0
2017-12-23T03:34:11.617Z,0
2017-12-23T03:35:13.498Z,0
2017-12-23T03:36:15.428Z,0
2017-12-23T03:37:17.393Z,0
2017-12-23T03:38:31.599Z,0
2017-12-23T03:39:33.509Z,0
2017-12-23T03:40:35.424Z,0
2017-12-23T03:41:37.324Z,0
2017-12-23T03:42:39.154Z,0
2017-12-23T03:43:40.951Z,0
2017-12-23T03:44:42.836Z,0
2017-12-23T03:45:44.715Z,0
2017-12-23T03:46:46.578Z,0
2017-12-23T03:48:00.707Z,0
2017-12-23T03:49:02.570Z,0
2017-12-23T03:50:04.456Z,0
2017-12-23T03:51:06.332Z,0
2017-12-23T03:52:08.129Z,0
2017-12-23T03:53:09.931Z,0
2017-12-23T03:54:11.817Z,0
2017-12-23T03:55:13.700Z,0
2017-12-23T03:56:15.578Z,0
2017-12-23T03:57:29.757Z,0
2017-12-23T03:58:31.619Z,0
2017-12-23T03:59:33.499Z,0
2017-12-23T04:00:35.370Z,0
2017-12-23T04:01:37.193Z,0
2017-12-23T04:02:39.001Z,0
2017-12-23T04:03:40.861Z,0
2017-12-23T04:04:42.716Z,0
2017-12-23T04:05:44.574Z,0
2017-12-23T04:06:58.769Z,0
2017-12-23T04:08:00.625Z,0
2017-12-23T04:09:02.482Z,0
2017-12-23T04:10:04.348Z,0
2017-12-23T04:11:06.145Z,0
2017-12-23T04:12:07.960Z,0
2017-12-23T04:13:09.841Z,0
2017-12-23T04:14:11.700Z,0
2017-12-23T04:15:13.560Z,0
2017-12-23T04:16:27.765Z,0
2017-12-23T04:17:29.642Z,0
2017-12-23T04:18:31.507Z,0
2017-12-23T04:19:33.372Z,0
2017-12-23T04:20:35.193Z,0
2017-12-23T04:21:36.984Z,0
2017-12-23T04:22:38.867Z,0
2017-12-23T04:23:40.743Z,0
2017-12-23T04:24:42.611Z,0
2017-12-23T04:25:56.756Z,0
2017-12-23T04:26:58.620Z,0
2017-12-23T04:28:00.501Z,0
2017-12-23T04:29:02.365Z,0
2017-12-23T04:30:04.190Z,0
2017-12-23T04:31:05.983Z,0
2017-12-23T04:32:07.859Z,0
2017-12-23T04:33:09.722Z,0
2017-12-23T04:34:11.580Z,0
2017-12-23T04:35:25.713Z,0
2017-12-23T04:36:27.640Z,0
2017-12-23T04:37:29.455Z,0
2017-12-23T04:38:31.321Z,0
2017-12-23T04:39:33.138Z,0
2017-12-23T04:40:34.935Z,0
2017-12-23T04:41:36.817Z,0
2017-12-23T04:42:38.701Z,0
2017-12-23T04:43:40.585Z,0
2017-12-23T04:44:54.736Z,0
2017-12-23T04:45:56.617Z,0
2017-12-23T04:46:58.501Z,0
2017-12-23T04:48:00.384Z,0
2017-12-23T04:49:02.186Z,0
2017-12-23T04:50:03.998Z,0
2017-12-23T04:51:05.864Z,0
2017-12-23T04:52:07.746Z,0
2017-12-23T04:53:09.627Z,0
2017-12-23T04:54:23.807Z,0
2017-12-23T04:55:25.667Z,0
2017-12-23T04:56:27.526Z,0
2017-12-23T04:57:29.382Z,0
2017-12-23T04:58:31.182Z,0
2017-12-23T04:59:32.973Z,0
2017-12-23T05:00:34.834Z,0
2017-12-23T05:01:36.695Z,0
2017-12-23T05:02:38.599Z,0
2017-12-23T05:03:52.732Z,0
2017-12-23T05:04:54.590Z,0
2017-12-23T05:05:56.448Z,0
2017-12-23T05:06:58.311Z,0
2017-12-23T05:08:00.104Z,0
2017-12-23T05:09:01.900Z,0
2017-12-23T05:10:03.784Z,0
2017-12-23T05:11:05.638Z,0
2017-12-23T05:12:07.504Z,0
2017-12-23T05:13:21.657Z,0
2017-12-23T05:14:23.518Z,0
2017-12-23T05:15:25.400Z,0
2017-12-23T05:16:27.283Z,0
2017-12-23T05:17:29.091Z,0
2017-12-23T05:18:30.902Z,0
2017-12-23T05:19:32.781Z,0
2017-12-23T05:20:34.642Z,0
2017-12-23T05:21:36.522Z,0
2017-12-23T05:22:50.653Z,0
2017-12-23T05:23:52.538Z,0
2017-12-23T05:24:54.394Z,0
2017-12-23T05:25:56.256Z,0
2017-12-23T05:26:58.059Z,0
2017-12-23T05:27:59.878Z,0
2017-12-23T05:29:01.756Z,0
2017-12-23T05:30:03.619Z,0
2017-12-23T05:31:05.500Z,0
2017-12-23T05:32:19.631Z,0
2017-12-23T05:33:21.497Z,0
2017-12-23T05:34:23.371Z,0
2017-12-23T05:35:25.236Z,0
2017-12-23T05:36:27.039Z,0
2017-12-23T05:37:28.854Z,0
2017-12-23T05:38:30.717Z,0
2017-12-23T05:39:32.593Z,0
2017-12-23T05:40:34.455Z,0
2017-12-23T05:41:48.634Z,0
2017-12-23T05:42:50.511Z,0
2017-12-23T05:43:52.372Z,0
2017-12-23T05:44:54.232Z,0
2017-12-23T05:45:56.036Z,0
2017-12-23T05:46:57.852Z,0
2017-12-23T05:47:59.732Z,0
2017-12-23T05:49:01.612Z,0
2017-12-23T05:50:03.475Z,0
2017-12-23T05:51:17.628Z,0
2017-12-23T05:52:19.510Z,0
2017-12-23T05:53:21.372Z,0
2017-12-23T05:54:23.257Z,0
2017-12-23T05:55:25.075Z,0
2017-12-23T05:56:26.873Z,0
2017-12-23T05:57:28.742Z,0
2017-12-23T05:58:30.603Z,0
2017-12-23T05:59:32.458Z,0
2017-12-23T06:00:46.656Z,0
2017-12-23T06:01:48.518Z,0
2017-12-23T06:02:50.406Z,0
2017-12-23T06:03:52.282Z,0
2017-12-23T06:04:54.084Z,0
2017-12-23T06:05:55.883Z,0
2017-12-23T06:06:57.762Z,0
2017-12-23T06:07:59.643Z,0
2017-12-23T06:09:01.506Z,0
2017-12-23T06:10:15.710Z,0
2017-12-23T06:11:17.595Z,0
2017-12-23T06:12:19.452Z,0
2017-12-23T06:13:21.321Z,0
2017-12-23T06:14:23.137Z,0
2017-12-23T06:15:24.937Z,0
2017-12-23T06:16:26.823Z,0
2017-12-23T06:17:28.703Z,0
2017-12-23T06:18:30.570Z,0
2017-12-23T06:19:44.715Z,0
2017-12-23T06:20:46.573Z,0
2017-12-23T06:21:48.434Z,0
2017-12-23T06:22:50.297Z,0
2017-12-23T06:23:52.123Z,0
2017-12-23T06:24:53.931Z,0
2017-12-23T06:25:55.796Z,0
2017-12-23T06:26:57.678Z,0
2017-12-23T06:27:59.536Z,0
2017-12-23T06:29:13.738Z,4
2017-12-23T06:30:15.595Z,4
2017-12-23T06:31:17.457Z,0
2017-12-23T06:32:19.310Z,0
2017-12-23T06:33:21.110Z,4
2017-12-23T06:34:22.928Z,4
2017-12-23T06:35:24.822Z,4
2017-12-23T06:36:26.695Z,4
2017-12-23T06:37:28.556Z,8
2017-12-23T06:38:42.712Z,8
2017-12-23T06:39:44.596Z,8
2017-12-23T06:40:46.476Z,8
2017-12-23T06:41:48.344Z,12
2017-12-23T06:42:50.166Z,12
2017-12-23T06:43:51.980Z,16
2017-12-23T06:44:53.844Z,20
2017-12-23T06:45:55.708Z,20
2017-12-23T06:46:57.590Z,24
2017-12-23T06:48:11.725Z,28
2017-12-23T06:49:13.610Z,32
2017-12-23T06:50:15.492Z,32
2017-12-23T06:51:17.356Z,36
2017-12-23T06:52:19.160Z,44
2017-12-23T06:53:20.976Z,48
2017-12-23T06:54:22.862Z,56
2017-12-23T06:55:24.741Z,68
2017-12-23T06:56:26.594Z,72
2017-12-23T06:57:40.774Z,84
2017-12-23T06:58:42.636Z,88
2017-12-23T06:59:44.493Z,84
2017-12-23T07:00:46.365Z,92
2017-12-23T07:01:48.177Z,104
2017-12-23T07:02:49.971Z,112
2017-12-23T07:03:51.841Z,132
2017-12-23T07:04:53.719Z,132
2017-12-23T07:05:55.583Z,144
2017-12-23T07:07:09.782Z,148
2017-12-23T07:08:11.665Z,164
2017-12-23T07:09:13.551Z,196
2017-12-23T07:10:15.420Z,200
2017-12-23T07:11:17.242Z,200
2017-12-23T07:12:19.063Z,188
2017-12-23T07:13:20.949Z,196
2017-12-23T07:14:22.825Z,204
2017-12-23T07:15:24.718Z,188
2017-12-23T07:16:38.851Z,248
2017-12-23T07:17:40.730Z,260
2017-12-23T07:18:42.602Z,304
2017-12-23T07:19:44.493Z,276
2017-12-23T07:20:46.318Z,288
2017-12-23T07:21:48.139Z,268
2017-12-23T07:22:50.021Z,332
2017-12-23T07:23:51.888Z,316
2017-12-23T07:24:53.755Z,328
2017-12-23T07:26:07.914Z,380
2017-12-23T07:27:09.796Z,336
2017-12-23T07:28:11.663Z,320
2017-12-23T07:29:13.532Z,332
2017-12-23T07:30:15.330Z,312
2017-12-23T07:31:17.130Z,308
2017-12-23T07:32:19.005Z,308
2017-12-23T07:33:20.891Z,320
2017-12-23T07:34:22.752Z,300
2017-12-23T07:35:36.886Z,348
2017-12-23T07:36:38.748Z,352
2017-12-23T07:37:40.636Z,404
2017-12-23T07:38:42.500Z,404
2017-12-23T07:39:44.302Z,412
2017-12-23T07:40:46.101Z,472
2017-12-23T07:41:47.990Z,628
2017-12-23T07:42:49.874Z,560
2017-12-23T07:43:51.766Z,648
2017-12-23T07:45:05.919Z,692
2017-12-23T07:46:07.809Z,548
2017-12-23T07:47:09.692Z,588
2017-12-23T07:48:11.557Z,600
2017-12-23T07:49:13.378Z,500
2017-12-23T07:50:15.182Z,548
2017-12-23T07:51:17.104Z,612
2017-12-23T07:52:18.966Z,684
2017-12-23T07:53:20.827Z,708
2017-12-23T07:54:34.964Z,660
2017-12-23T07:55:36.827Z,656
2017-12-23T07:56:38.688Z,708
2017-12-23T07:57:40.786Z,680
2017-12-23T07:58:42.596Z,672
2017-12-23T07:59:44.424Z,640
2017-12-23T08:00:46.227Z,688
2017-12-23T08:01:48.055Z,732
2017-12-23T08:02:49.874Z,864
2017-12-23T08:04:04.040Z,860
2017-12-23T08:05:05.904Z,872
2017-12-23T08:06:07.766Z,932
2017-12-23T08:07:09.634Z,988
2017-12-23T08:08:11.448Z,1104
2017-12-23T08:09:13.309Z,1256
2017-12-23T08:10:15.179Z,1284
2017-12-23T08:11:16.980Z,1352
2017-12-23T08:12:18.841Z,1492
2017-12-23T08:13:32.987Z,1384
2017-12-23T08:14:34.876Z,1708
2017-12-23T08:15:36.763Z,1856
2017-12-23T08:16:38.635Z,2000
2017-12-23T08:17:40.459Z,2200
2017-12-23T08:18:42.281Z,2516
2017-12-23T08:19:44.141Z,2860
2017-12-23T08:20:46.006Z,2784
2017-12-23T08:21:47.877Z,2600
2017-12-23T08:23:02.239Z,2520
2017-12-23T08:24:04.102Z,2136
2017-12-23T08:25:05.994Z,2104
2017-12-23T08:26:07.863Z,2084
2017-12-23T08:27:09.706Z,1688
2017-12-23T08:28:11.517Z,1728
2017-12-23T08:29:13.637Z,2064
2017-12-23T08:30:15.599Z,1984
2017-12-23T08:31:17.466Z,1996
2017-12-23T08:32:31.668Z,1916
2017-12-23T08:33:33.536Z,1636
2017-12-23T08:34:35.403Z,1720
2017-12-23T08:35:37.264Z,1688
2017-12-23T08:36:39.070Z,1580
2017-12-23T08:37:40.872Z,1612
2017-12-23T08:38:42.739Z,1600
2017-12-23T08:39:44.632Z,1740
2017-12-23T08:40:46.520Z,1708
2017-12-23T08:42:00.728Z,1784
2017-12-23T08:43:02.592Z,1992
2017-12-23T08:44:04.530Z,1888
2017-12-23T08:45:06.389Z,1856
2017-12-23T08:46:08.198Z,1808
2017-12-23T08:47:09.997Z,2004
2017-12-23T08:48:11.884Z,2176
2017-12-23T08:49:13.772Z,2304
2017-12-23T08:50:15.659Z,2192
2017-12-23T08:51:29.798Z,2472
2017-12-23T08:52:31.662Z,2596
2017-12-23T08:53:33.549Z,2572
2017-12-23T08:54:35.417Z,2412
2017-12-23T08:55:37.228Z,2780
2017-12-23T08:56:39.049Z,3336
2017-12-23T08:57:40.938Z,3884
2017-12-23T08:58:42.808Z,4092
2017-12-23T08:59:44.700Z,3812
2017-12-23T09:00:58.863Z,4004
2017-12-23T09:02:00.728Z,4756
2017-12-23T09:03:02.614Z,4412
2017-12-23T09:04:04.485Z,3864
2017-12-23T09:05:06.284Z,4096
2017-12-23T09:06:08.088Z,4420
2017-12-23T09:07:09.956Z,3376
2017-12-23T09:08:11.822Z,3496
2017-12-23T09:09:13.690Z,3188
2017-12-23T09:10:27.826Z,3512
2017-12-23T09:11:29.746Z,3236
2017-12-23T09:12:31.600Z,3332
2017-12-23T09:13:33.459Z,3404
2017-12-23T09:14:35.342Z,3828
2017-12-23T09:15:37.165Z,3172
2017-12-23T09:16:39.077Z,2764
2017-12-23T09:17:40.966Z,2720
2017-12-23T09:18:42.830Z,2620
2017-12-23T09:19:56.958Z,2692
2017-12-23T09:20:58.827Z,2988
2017-12-23T09:22:00.693Z,3004
2017-12-23T09:23:02.660Z,2724
2017-12-23T09:24:04.498Z,2864
2017-12-23T09:25:06.330Z,2872
2017-12-23T09:26:08.203Z,2744
2017-12-23T09:27:10.112Z,3244
2017-12-23T09:28:12.005Z,3480
2017-12-23T09:29:26.160Z,4040
2017-12-23T09:30:28.025Z,4240
2017-12-23T09:31:29.893Z,4308
2017-12-23T09:32:31.765Z,4036
2017-12-23T09:33:33.595Z,4032
2017-12-23T09:34:35.455Z,4240
2017-12-23T09:35:37.354Z,4104
2017-12-23T09:36:39.518Z,3968
2017-12-23T09:37:41.492Z,3868
2017-12-23T09:38:55.757Z,4104
2017-12-23T09:39:57.686Z,3636
2017-12-23T09:40:59.556Z,3412
2017-12-23T09:42:01.446Z,3140
2017-12-23T09:43:03.310Z,3220
2017-12-23T09:44:05.155Z,3412
2017-12-23T09:45:07.080Z,2980
2017-12-23T09:46:08.947Z,3188
2017-12-23T09:47:10.833Z,3076
2017-12-23T09:48:25.068Z,3048
2017-12-23T09:49:26.974Z,3064
2017-12-23T09:50:28.843Z,3168
2017-12-23T09:51:30.761Z,3284
2017-12-23T09:52:32.553Z,3448
2017-12-23T09:53:34.351Z,3572
2017-12-23T09:54:36.224Z,3420
2017-12-23T09:55:38.091Z,3364
2017-12-23T09:56:40.002Z,3524
2017-12-23T09:57:54.145Z,3484
2017-12-23T09:58:56.001Z,3652
2017-12-23T09:59:58.050Z,4132
2017-12-23T10:00:59.938Z,3928
2017-12-23T10:02:01.751Z,3312
2017-12-23T10:03:03.560Z,3160
2017-12-23T10:04:05.450Z,3148
2017-12-23T10:05:07.339Z,3132
2017-12-23T10:06:09.234Z,3216
2017-12-23T10:07:23.392Z,3624
2017-12-23T10:08:25.287Z,3936
2017-12-23T10:09:27.152Z,3732
2017-12-23T10:10:29.017Z,3292
2017-12-23T10:11:30.876Z,3628
2017-12-23T10:12:32.697Z,3312
2017-12-23T10:13:34.606Z,3628
2017-12-23T10:14:36.532Z,3660
2017-12-23T10:15:38.394Z,3920
2017-12-23T10:16:52.556Z,3648
2017-12-23T10:17:54.447Z,4004
2017-12-23T10:18:56.365Z,3980
2017-12-23T10:19:58.268Z,4224
2017-12-23T10:21:00.068Z,4324
2017-12-23T10:22:01.892Z,3996
2017-12-23T10:23:03.783Z,3544
2017-12-23T10:24:05.672Z,3404
2017-12-23T10:25:07.562Z,3264
2017-12-23T10:26:21.700Z,2644
2017-12-23T10:27:23.566Z,2860
2017-12-23T10:28:25.437Z,2996
2017-12-23T10:29:27.307Z,3184
2017-12-23T10:30:29.139Z,3092
2017-12-23T10:31:30.947Z,2700
2017-12-23T10:32:32.816Z,2312
2017-12-23T10:33:34.762Z,2328
2017-12-23T10:34:36.628Z,2520
2017-12-23T10:35:50.889Z,2560
2017-12-23T10:36:52.709Z,2376
2017-12-23T10:37:54.583Z,3040
2017-12-23T10:38:56.450Z,3040
2017-12-23T10:39:58.282Z,3048
2017-12-23T10:41:00.099Z,3128
2017-12-23T10:42:01.970Z,3084
2017-12-23T10:43:03.866Z,3072
2017-12-23T10:44:05.792Z,3532
2017-12-23T10:45:19.981Z,3720
2017-12-23T10:46:21.931Z,3664
2017-12-23T10:47:23.842Z,3800
2017-12-23T10:48:25.857Z,4020
2017-12-23T10:49:27.647Z,4000
2017-12-23T10:50:29.456Z,3996
2017-12-23T10:51:31.350Z,3332
2017-12-23T10:52:33.269Z,2936
2017-12-23T10:53:35.138Z,3132
2017-12-23T10:54:49.277Z,2860
2017-12-23T10:55:51.194Z,2332
2017-12-23T10:56:53.063Z,2500
2017-12-23T10:57:54.954Z,2456
2017-12-23T10:58:56.766Z,2624
2017-12-23T10:59:58.576Z,2724
2017-12-23T11:01:00.524Z,2616
2017-12-23T11:02:02.413Z,2452
2017-12-23T11:03:04.543Z,2584
2017-12-23T11:04:18.727Z,2612
2017-12-23T11:05:20.675Z,2348
2017-12-23T11:06:22.603Z,2128
2017-12-23T11:07:24.509Z,2084
2017-12-23T11:08:26.318Z,2008
2017-12-23T11:09:28.138Z,2052
2017-12-23T11:10:30.031Z,1980
2017-12-23T11:11:31.923Z,2024
2017-12-23T11:12:33.811Z,2072
2017-12-23T11:13:47.974Z,2196
2017-12-23T11:14:49.862Z,1956
2017-12-23T11:15:51.749Z,1848
2017-12-23T11:16:53.614Z,1832
2017-12-23T11:17:55.424Z,2028
2017-12-23T11:18:57.248Z,1968
2017-12-23T11:19:59.139Z,1984
2017-12-23T11:21:01.008Z,2288
2017-12-23T11:22:02.874Z,2048
2017-12-23T11:23:17.010Z,1752
2017-12-23T11:24:18.874Z,2056
2017-12-23T11:25:20.771Z,2080
2017-12-23T11:26:22.666Z,2160
2017-12-23T11:27:24.494Z,2248
2017-12-23T11:28:26.344Z,2296
2017-12-23T11:29:28.216Z,2320
2017-12-23T11:30:30.102Z,2372
2017-12-23T11:31:32.004Z,2564
2017-12-23T11:32:46.138Z,2108
2017-12-23T11:33:48.012Z,2108
2017-12-23T11:34:49.920Z,2408
2017-12-23T11:35:51.810Z,2712
2017-12-23T11:36:53.611Z,2312
2017-12-23T11:37:55.415Z,2180
2017-12-23T11:38:57.282Z,2380
2017-12-23T11:39:59.152Z,2840
2017-12-23T11:41:01.037Z,3256
2017-12-23T11:42:15.181Z,3212
2017-12-23T11:43:17.067Z,3420
2017-12-23T11:44:18.938Z,3284
2017-12-23T11:45:20.827Z,3436
2017-12-23T11:46:22.634Z,4616
2017-12-23T11:47:24.439Z,5108
2017-12-23T11:48:26.335Z,5092
2017-12-23T11:49:28.194Z,4852
2017-12-23T11:50:30.060Z,4324
2017-12-23T11:51:44.204Z,4196
2017-12-23T11:52:46.091Z,4184
2017-12-23T11:53:47.956Z,3776
2017-12-23T11:54:49.835Z,3880
2017-12-23T11:55:51.666Z,3428
2017-12-23T11:56:53.533Z,3524
2017-12-23T11:57:55.363Z,3728
2017-12-23T11:58:57.231Z,3316
2017-12-23T11:59:59.100Z,3504
2017-12-23T12:01:13.244Z,3256
2017-12-23T12:02:15.044Z,3104
2017-12-23T12:03:16.873Z,2968
2017-12-23T12:04:18.678Z,2680
2017-12-23T12:05:20.572Z,2772
2017-12-23T12:06:22.458Z,2544
2017-12-23T12:07:24.302Z,2492
2017-12-23T12:08:26.112Z,2536
2017-12-23T12:09:27.931Z,2660
2017-12-23T12:10:42.180Z,2408
2017-12-23T12:11:44.135Z,1944
2017-12-23T12:12:46.120Z,1780
2017-12-23T12:13:47.996Z,1768
2017-12-23T12:14:49.840Z,2000
2017-12-23T12:15:51.687Z,1956
2017-12-23T12:16:53.558Z,2044
2017-12-23T12:17:55.452Z,2248
2017-12-23T12:18:57.314Z,2384
2017-12-23T12:20:11.470Z,2872
2017-12-23T12:21:13.342Z,2476
2017-12-23T12:22:15.237Z,2772
2017-12-23T12:23:17.124Z,2856
2017-12-23T12:24:18.930Z,2632
2017-12-23T12:25:20.733Z,2844
2017-12-23T12:26:22.601Z,2792
2017-12-23T12:27:24.469Z,2900
2017-12-23T12:28:26.342Z,2940
2017-12-23T12:29:40.481Z,2980
2017-12-23T12:30:42.340Z,2308
2017-12-23T12:31:44.219Z,2084
2017-12-23T12:32:46.080Z,2432
2017-12-23T12:33:47.884Z,2196
2017-12-23T12:34:49.706Z,1984
2017-12-23T12:35:51.574Z,2092
2017-12-23T12:36:53.460Z,1908
2017-12-23T12:37:55.324Z,1860
2017-12-23T12:39:09.546Z,1784
2017-12-23T12:40:11.422Z,1644
2017-12-23T12:41:13.293Z,1500
2017-12-23T12:42:15.162Z,1684
2017-12-23T12:43:16.968Z,1860
2017-12-23T12:44:18.769Z,1804
2017-12-23T12:45:20.657Z,1748
2017-12-23T12:46:22.523Z,1752
2017-12-23T12:47:24.409Z,2012
2017-12-23T12:48:38.544Z,1824
2017-12-23T12:49:40.413Z,1936
2017-12-23T12:50:42.272Z,2116
2017-12-23T12:51:44.147Z,1732
2017-12-23T12:52:45.972Z,1508
2017-12-23T12:53:47.797Z,1504
2017-12-23T12:54:49.685Z,1804
2017-12-23T12:55:51.561Z,1840
2017-12-23T12:56:53.446Z,1736
2017-12-23T12:58:07.596Z,1516
2017-12-23T12:59:09.450Z,1632
2017-12-23T13:00:11.319Z,1440
2017-12-23T13:01:13.202Z,1512
2017-12-23T13:02:15.010Z,1880
2017-12-23T13:03:16.808Z,1940
2017-12-23T13:04:18.681Z,2060
2017-12-23T13:05:20.565Z,1580
2017-12-23T13:06:22.426Z,1152
2017-12-23T13:07:36.564Z,996
2017-12-23T13:08:38.449Z,1088
2017-12-23T13:09:40.319Z,1252
2017-12-23T13:10:42.198Z,1344
2017-12-23T13:11:44.012Z,1312
2017-12-23T13:12:45.824Z,1340
2017-12-23T13:13:47.645Z,1220
2017-12-23T13:14:49.471Z,1316
2017-12-23T13:15:51.296Z,1296
2017-12-23T13:17:05.463Z,1640
2017-12-23T13:18:07.316Z,1548
2017-12-23T13:19:09.184Z,1580
2017-12-23T13:20:11.058Z,1612
2017-12-23T13:21:12.879Z,1468
2017-12-23T13:22:14.706Z,1184
2017-12-23T13:23:16.576Z,1108
2017-12-23T13:24:18.460Z,1332
2017-12-23T13:25:20.331Z,1220
2017-12-23T13:26:34.470Z,936
2017-12-23T13:27:36.357Z,1060
2017-12-23T13:28:38.247Z,1032
2017-12-23T13:29:40.112Z,1076
2017-12-23T13:30:41.924Z,960
2017-12-23T13:31:43.739Z,1056
2017-12-23T13:32:45.609Z,1172
2017-12-23T13:33:47.472Z,1188
2017-12-23T13:34:49.344Z,1344
2017-12-23T13:36:03.501Z,1144
2017-12-23T13:37:05.371Z,1232
2017-12-23T13:38:07.264Z,1036
2017-12-23T13:39:09.148Z,920
2017-12-23T13:40:10.959Z,1012
2017-12-23T13:41:12.793Z,1208
2017-12-23T13:42:14.670Z,888
2017-12-23T13:43:16.556Z,868
2017-12-23T13:44:18.440Z,824
2017-12-23T13:45:32.590Z,872
2017-12-23T13:46:34.467Z,836
2017-12-23T13:47:36.328Z,888
2017-12-23T13:48:38.196Z,876
2017-12-23T13:49:40.027Z,908
2017-12-23T13:50:41.825Z,1004
2017-12-23T13:51:43.710Z,1132
2017-12-23T13:52:45.582Z,1224
2017-12-23T13:53:47.445Z,1004
2017-12-23T13:55:01.640Z,1220
2017-12-23T13:56:03.537Z,1032
2017-12-23T13:57:05.394Z,824
2017-12-23T13:58:07.261Z,984
2017-12-23T13:59:09.069Z,924
2017-12-23T14:00:10.888Z,944
2017-12-23T14:01:12.762Z,912
2017-12-23T14:02:14.608Z,872
2017-12-23T14:03:16.461Z,912
2017-12-23T14:04:30.617Z,836
2017-12-23T14:05:32.487Z,840
2017-12-23T14:06:34.349Z,744
2017-12-23T14:07:36.212Z,968
2017-12-23T14:08:38.017Z,788
2017-12-23T14:09:39.837Z,940
2017-12-23T14:10:41.703Z,856
2017-12-23T14:11:43.569Z,728
2017-12-23T14:12:45.460Z,792
2017-12-23T14:13:59.616Z,752
2017-12-23T14:15:01.507Z,716
2017-12-23T14:16:03.371Z,700
2017-12-23T14:17:05.237Z,552
2017-12-23T14:18:07.043Z,516
2017-12-23T14:19:08.865Z,572
2017-12-23T14:20:10.735Z,568
2017-12-23T14:21:12.616Z,492
2017-12-23T14:22:14.483Z,448
2017-12-23T14:23:28.687Z,488
2017-12-23T14:24:30.566Z,420
2017-12-23T14:25:32.455Z,328
2017-12-23T14:26:34.320Z,308
2017-12-23T14:27:36.144Z,296
2017-12-23T14:28:37.972Z,260
2017-12-23T14:29:39.861Z,248
2017-12-23T14:30:41.748Z,208
2017-12-23T14:31:43.607Z,212
2017-12-23T14:32:57.734Z,200
2017-12-23T14:33:59.613Z,196
2017-12-23T14:35:01.468Z,180
2017-12-23T14:36:03.339Z,160
2017-12-23T14:37:05.159Z,172
2017-12-23T14:38:06.961Z,160
2017-12-23T14:39:08.824Z,144
2017-12-23T14:40:10.705Z,140
2017-12-23T14:41:12.572Z,128
2017-12-23T14:42:26.706Z,136
2017-12-23T14:43:28.580Z,136
2017-12-23T14:44:30.436Z,128
2017-12-23T14:45:32.312Z,128
2017-12-23T14:46:34.111Z,136